Terminal Aerodrome Forecast
Issued by NWS Pocatello, ID

Home | Current Version | Previous Version | Text Only | Print | Product List | Glossary On
Versions: 1 2 3 4 5 6 7 8 9 10 11 12
000
FTUS45 KPIH 190520
TAFBYI
TAF
KBYI 190520Z 1906/2006 20007KT P6SM SKC
     FM191800 28009KT P6SM SKC
     FM200300 22007KT P6SM SCT200=

USA.gov is the U.S. government's official web portal to all federal, state and local government web resources and services.